This is the latest recevied weather packets stored in our database for station/object CT2IRJ-11. If no packets are shown the sender has not sent any weather packets the latest 10 day(s).
| Time | Temp. | Humidity | Pressure | Rain* | Wind** | Luminosity | Snow |
|---|---|---|---|---|---|---|---|
| 1777727310 | 17.78° C | 89% | 1016.9 hPa | 0.51 mm | - | 636 W/m² | - |
| 1777727010 | 17.22° C | 90% | 1016.9 hPa | 0.51 mm | - | 336 W/m² | - |
| 1777726709 | 17.22° C | 90% | 1016.9 hPa | 0.51 mm | - | 368 W/m² | - |
| 1777726410 | 17.22° C | 89% | 1016.9 hPa | 0.25 mm | - | 318 W/m² | - |
| 1777726109 | 17.22° C | 89% | 1017.3 hPa | 0 mm | - | 249 W/m² | - |
| 1777725810 | 17.78° C | 89% | 1017.3 hPa | 0 mm | - | 219 W/m² | - |
| 1777725510 | 17.78° C | 86% | 1017.3 hPa | 0 mm | - | 177 W/m² | - |
| 1777725212 | 18.33° C | 85% | 1017.3 hPa | 0 mm | - | 205 W/m² | - |
| 1777724909 | 17.78° C | 87% | 1017.3 hPa | 0 mm | - | 390 W/m² | - |
| 1777724609 | 17.22° C | 88% | 1017.3 hPa | 0 mm | - | 367 W/m² | - |
| 1777724310 | 17.22° C | 88% | 1017.6 hPa | 0 mm | - | 321 W/m² | - |
| 1777724010 | 17.22° C | 89% | 1017.6 hPa | 0 mm | - | 208 W/m² | - |
| 1777723712 | 16.67° C | 88% | 1017.6 hPa | 0 mm | - | 217 W/m² | - |
| 1777723411 | 16.67° C | 89% | 1017.6 hPa | 0 mm | - | 213 W/m² | - |
| 1777723109 | 17.22° C | 88% | 1017.6 hPa | 0 mm | - | 184 W/m² | - |
| 1777722810 | 17.22° C | 86% | 1017.6 hPa | 0 mm | - | 190 W/m² | - |
| 1777722509 | 17.78° C | 81% | 1017.6 hPa | 0 mm | - | 178 W/m² | - |
| 1777722209 | 17.78° C | 79% | 1017.6 hPa | 0 mm | - | 165 W/m² | - |
| 1777721909 | 18.33° C | 75% | 1017.6 hPa | 0 mm | - | 141 W/m² | - |
| 1777721610 | 18.33° C | 72% | 1017.6 hPa | 0 mm | - | 122 W/m² | - |
| 1777721310 | 18.33° C | 72% | 1017.6 hPa | 0 mm | - | 114 W/m² | - |
| 1777721009 | 18.33° C | 72% | 1017.3 hPa | 0 mm | - | 111 W/m² | - |
| 1777720710 | 17.78° C | 73% | 1017.6 hPa | 0 mm | - | 181 W/m² | - |
| 1777720410 | 17.78° C | 75% | 1017.6 hPa | 0 mm | - | 114 W/m² | - |
| 1777720110 | 18.89° C | 72% | 1017.6 hPa | 0 mm | - | 138 W/m² | - |
* Rain latest hour (hover to see other rain measurements)
** Current wind speed in m/s (hover to see current wind gust speed)